sensor_id;sensor_type;location;lat;lon;timestamp;temperature;humidity
78793;SHT31;68134;51.984;5.652;2023-04-25T00:01:22;8.5;70.0
78793;SHT31;68134;51.984;5.652;2023-04-25T00:03:52;8.5;70.0
78793;SHT31;68134;51.984;5.652;2023-04-25T00:06:22;8.4;69.8
78793;SHT31;68134;51.984;5.652;2023-04-25T00:08:53;8.4;69.8
78793;SHT31;68134;51.984;5.652;2023-04-25T00:11:24;8.4;70.2
78793;SHT31;68134;51.984;5.652;2023-04-25T00:13:53;8.4;70.5
78793;SHT31;68134;51.984;5.652;2023-04-25T00:16:24;8.3;70.5
78793;SHT31;68134;51.984;5.652;2023-04-25T00:18:54;8.3;70.6
78793;SHT31;68134;51.984;5.652;2023-04-25T00:21:24;8.3;70.5
78793;SHT31;68134;51.984;5.652;2023-04-25T00:23:54;8.3;70.6
78793;SHT31;68134;51.984;5.652;2023-04-25T00:26:24;8.2;70.6
78793;SHT31;68134;51.984;5.652;2023-04-25T00:28:56;8.2;70.3
78793;SHT31;68134;51.984;5.652;2023-04-25T00:31:25;8.2;70.0
78793;SHT31;68134;51.984;5.652;2023-04-25T00:33:56;8.2;69.8
78793;SHT31;68134;51.984;5.652;2023-04-25T00:36:26;8.2;70.0
78793;SHT31;68134;51.984;5.652;2023-04-25T00:38:57;8.2;70.1
78793;SHT31;68134;51.984;5.652;2023-04-25T00:41:27;8.1;70.3
78793;SHT31;68134;51.984;5.652;2023-04-25T00:43:57;8.1;70.6
78793;SHT31;68134;51.984;5.652;2023-04-25T00:46:28;8.1;70.7
78793;SHT31;68134;51.984;5.652;2023-04-25T00:48:59;8.0;70.7
78793;SHT31;68134;51.984;5.652;2023-04-25T00:51:29;8.0;70.9
78793;SHT31;68134;51.984;5.652;2023-04-25T00:54:01;8.0;70.9
78793;SHT31;68134;51.984;5.652;2023-04-25T00:56:31;8.0;70.7
78793;SHT31;68134;51.984;5.652;2023-04-25T00:59:00;7.9;70.8
78793;SHT31;68134;51.984;5.652;2023-04-25T01:01:30;7.9;70.7
78793;SHT31;68134;51.984;5.652;2023-04-25T01:04:01;7.9;71.2
78793;SHT31;68134;51.984;5.652;2023-04-25T01:06:31;7.9;71.3
78793;SHT31;68134;51.984;5.652;2023-04-25T01:09:02;7.9;71.9
78793;SHT31;68134;51.984;5.652;2023-04-25T01:11:32;7.9;71.8
78793;SHT31;68134;51.984;5.652;2023-04-25T01:14:01;7.9;71.8
78793;SHT31;68134;51.984;5.652;2023-04-25T01:16:31;7.9;71.4
78793;SHT31;68134;51.984;5.652;2023-04-25T01:19:04;7.9;71.7
78793;SHT31;68134;51.984;5.652;2023-04-25T01:21:34;8.0;71.8
78793;SHT31;68134;51.984;5.652;2023-04-25T01:24:04;8.0;71.2
78793;SHT31;68134;51.984;5.652;2023-04-25T01:26:35;8.0;71.4
78793;SHT31;68134;51.984;5.652;2023-04-25T01:29:06;8.1;71.3
78793;SHT31;68134;51.984;5.652;2023-04-25T01:31:37;8.1;70.4
78793;SHT31;68134;51.984;5.652;2023-04-25T01:34:07;8.1;70.2
78793;SHT31;68134;51.984;5.652;2023-04-25T01:36:37;8.2;70.0
78793;SHT31;68134;51.984;5.652;2023-04-25T01:39:07;8.2;69.9
78793;SHT31;68134;51.984;5.652;2023-04-25T01:41:37;8.2;69.7
78793;SHT31;68134;51.984;5.652;2023-04-25T01:44:07;8.2;69.8
78793;SHT31;68134;51.984;5.652;2023-04-25T01:46:37;8.2;69.8
78793;SHT31;68134;51.984;5.652;2023-04-25T01:49:07;8.3;69.7
78793;SHT31;68134;51.984;5.652;2023-04-25T01:51:37;8.3;69.5
78793;SHT31;68134;51.984;5.652;2023-04-25T01:54:07;8.3;69.9
78793;SHT31;68134;51.984;5.652;2023-04-25T01:56:39;8.3;69.3
78793;SHT31;68134;51.984;5.652;2023-04-25T01:59:08;8.3;68.7
78793;SHT31;68134;51.984;5.652;2023-04-25T02:01:38;8.3;68.3
78793;SHT31;68134;51.984;5.652;2023-04-25T02:04:08;8.3;68.5
78793;SHT31;68134;51.984;5.652;2023-04-25T02:06:39;8.3;67.8
78793;SHT31;68134;51.984;5.652;2023-04-25T02:09:09;8.2;67.6
78793;SHT31;68134;51.984;5.652;2023-04-25T02:11:38;8.2;67.8
78793;SHT31;68134;51.984;5.652;2023-04-25T02:14:08;8.2;67.7
78793;SHT31;68134;51.984;5.652;2023-04-25T02:16:38;8.1;67.7
78793;SHT31;68134;51.984;5.652;2023-04-25T02:19:07;8.1;67.6
78793;SHT31;68134;51.984;5.652;2023-04-25T02:21:37;8.0;67.6
78793;SHT31;68134;51.984;5.652;2023-04-25T02:24:08;8.0;67.8
78793;SHT31;68134;51.984;5.652;2023-04-25T02:26:37;7.9;68.1
78793;SHT31;68134;51.984;5.652;2023-04-25T02:29:07;7.9;68.0
78793;SHT31;68134;51.984;5.652;2023-04-25T02:31:37;7.8;67.9
78793;SHT31;68134;51.984;5.652;2023-04-25T02:34:06;7.8;68.1
78793;SHT31;68134;51.984;5.652;2023-04-25T02:36:36;7.8;68.3
78793;SHT31;68134;51.984;5.652;2023-04-25T02:39:05;7.7;68.3
78793;SHT31;68134;51.984;5.652;2023-04-25T02:41:35;7.7;68.5
78793;SHT31;68134;51.984;5.652;2023-04-25T02:44:05;7.6;68.4
78793;SHT31;68134;51.984;5.652;2023-04-25T02:46:34;7.6;68.4
78793;SHT31;68134;51.984;5.652;2023-04-25T02:49:04;7.6;68.6
78793;SHT31;68134;51.984;5.652;2023-04-25T02:51:34;7.5;68.3
78793;SHT31;68134;51.984;5.652;2023-04-25T02:54:03;7.5;68.7
78793;SHT31;68134;51.984;5.652;2023-04-25T02:56:33;7.4;68.6
78793;SHT31;68134;51.984;5.652;2023-04-25T02:59:03;7.4;68.6
78793;SHT31;68134;51.984;5.652;2023-04-25T03:01:33;7.4;68.5
78793;SHT31;68134;51.984;5.652;2023-04-25T03:04:02;7.3;68.5
78793;SHT31;68134;51.984;5.652;2023-04-25T03:06:32;7.3;68.9
78793;SHT31;68134;51.984;5.652;2023-04-25T03:09:02;7.2;68.7
78793;SHT31;68134;51.984;5.652;2023-04-25T03:11:31;7.2;68.6
78793;SHT31;68134;51.984;5.652;2023-04-25T03:14:01;7.2;69.0
78793;SHT31;68134;51.984;5.652;2023-04-25T03:16:30;7.1;69.2
78793;SHT31;68134;51.984;5.652;2023-04-25T03:19:02;7.1;69.7
78793;SHT31;68134;51.984;5.652;2023-04-25T03:21:34;7.0;69.8
78793;SHT31;68134;51.984;5.652;2023-04-25T03:24:04;7.0;70.1
78793;SHT31;68134;51.984;5.652;2023-04-25T03:26:36;7.0;70.5
78793;SHT31;68134;51.984;5.652;2023-04-25T03:29:05;7.0;71.0
78793;SHT31;68134;51.984;5.652;2023-04-25T03:31:35;7.0;71.1
78793;SHT31;68134;51.984;5.652;2023-04-25T03:34:05;7.0;71.4
78793;SHT31;68134;51.984;5.652;2023-04-25T03:36:35;7.0;71.6
78793;SHT31;68134;51.984;5.652;2023-04-25T03:39:04;7.0;71.8
78793;SHT31;68134;51.984;5.652;2023-04-25T03:41:34;7.1;71.6
78793;SHT31;68134;51.984;5.652;2023-04-25T03:44:03;7.1;71.5
78793;SHT31;68134;51.984;5.652;2023-04-25T03:46:33;7.1;71.3
78793;SHT31;68134;51.984;5.652;2023-04-25T03:49:03;7.2;71.0
78793;SHT31;68134;51.984;5.652;2023-04-25T03:51:32;7.2;70.8
78793;SHT31;68134;51.984;5.652;2023-04-25T03:54:02;7.2;70.5
78793;SHT31;68134;51.984;5.652;2023-04-25T03:56:31;7.2;70.4
78793;SHT31;68134;51.984;5.652;2023-04-25T03:59:01;7.2;70.3
78793;SHT31;68134;51.984;5.652;2023-04-25T04:01:31;7.1;70.3
78793;SHT31;68134;51.984;5.652;2023-04-25T04:04:00;7.1;70.6
78793;SHT31;68134;51.984;5.652;2023-04-25T04:06:32;7.1;70.3
78793;SHT31;68134;51.984;5.652;2023-04-25T04:09:02;7.0;70.7
78793;SHT31;68134;51.984;5.652;2023-04-25T04:11:33;7.0;70.7
78793;SHT31;68134;51.984;5.652;2023-04-25T04:14:06;7.0;71.2
78793;SHT31;68134;51.984;5.652;2023-04-25T04:16:39;7.0;71.2
78793;SHT31;68134;51.984;5.652;2023-04-25T04:19:08;7.0;71.2
78793;SHT31;68134;51.984;5.652;2023-04-25T04:21:38;7.0;71.4
78793;SHT31;68134;51.984;5.652;2023-04-25T04:24:08;7.0;70.8
78793;SHT31;68134;51.984;5.652;2023-04-25T04:26:38;7.0;71.4
78793;SHT31;68134;51.984;5.652;2023-04-25T04:29:08;7.0;70.9
78793;SHT31;68134;51.984;5.652;2023-04-25T04:31:38;7.1;71.5
78793;SHT31;68134;51.984;5.652;2023-04-25T04:34:09;7.1;70.8
78793;SHT31;68134;51.984;5.652;2023-04-25T04:36:40;7.1;70.7
78793;SHT31;68134;51.984;5.652;2023-04-25T04:39:09;7.2;70.6
78793;SHT31;68134;51.984;5.652;2023-04-25T04:41:40;7.2;70.9
78793;SHT31;68134;51.984;5.652;2023-04-25T04:44:10;7.2;70.7
78793;SHT31;68134;51.984;5.652;2023-04-25T04:46:39;7.2;70.4
78793;SHT31;68134;51.984;5.652;2023-04-25T04:49:11;7.3;69.9
78793;SHT31;68134;51.984;5.652;2023-04-25T04:51:41;7.3;70.5
78793;SHT31;68134;51.984;5.652;2023-04-25T04:54:13;7.3;70.2
78793;SHT31;68134;51.984;5.652;2023-04-25T04:56:43;7.3;70.1
78793;SHT31;68134;51.984;5.652;2023-04-25T04:59:13;7.4;70.3
78793;SHT31;68134;51.984;5.652;2023-04-25T05:01:42;7.4;70.4
78793;SHT31;68134;51.984;5.652;2023-04-25T05:04:13;7.4;70.3
78793;SHT31;68134;51.984;5.652;2023-04-25T05:06:42;7.4;70.3
78793;SHT31;68134;51.984;5.652;2023-04-25T05:09:12;7.5;70.2
78793;SHT31;68134;51.984;5.652;2023-04-25T05:11:42;7.5;70.2
78793;SHT31;68134;51.984;5.652;2023-04-25T05:14:11;7.6;70.3
78793;SHT31;68134;51.984;5.652;2023-04-25T05:16:42;7.6;70.4
78793;SHT31;68134;51.984;5.652;2023-04-25T05:19:12;7.6;70.1
78793;SHT31;68134;51.984;5.652;2023-04-25T05:21:41;7.7;69.6
78793;SHT31;68134;51.984;5.652;2023-04-25T05:24:11;7.7;70.0
78793;SHT31;68134;51.984;5.652;2023-04-25T05:26:43;7.7;69.9
78793;SHT31;68134;51.984;5.652;2023-04-25T05:29:13;7.8;69.5
78793;SHT31;68134;51.984;5.652;2023-04-25T05:31:44;7.8;69.6
78793;SHT31;68134;51.984;5.652;2023-04-25T05:34:15;7.8;69.6
78793;SHT31;68134;51.984;5.652;2023-04-25T05:36:44;7.9;70.1
78793;SHT31;68134;51.984;5.652;2023-04-25T05:39:16;7.9;69.1
78793;SHT31;68134;51.984;5.652;2023-04-25T05:41:48;7.9;69.2
78793;SHT31;68134;51.984;5.652;2023-04-25T05:44:17;8.0;68.9
78793;SHT31;68134;51.984;5.652;2023-04-25T05:46:47;8.0;68.6
78793;SHT31;68134;51.984;5.652;2023-04-25T05:49:17;8.0;68.7
78793;SHT31;68134;51.984;5.652;2023-04-25T05:51:46;8.1;67.8
78793;SHT31;68134;51.984;5.652;2023-04-25T05:54:16;8.1;67.6
78793;SHT31;68134;51.984;5.652;2023-04-25T05:56:46;8.1;67.3
78793;SHT31;68134;51.984;5.652;2023-04-25T05:59:15;8.1;67.5
78793;SHT31;68134;51.984;5.652;2023-04-25T06:01:45;8.1;67.9
78793;SHT31;68134;51.984;5.652;2023-04-25T06:04:14;8.1;67.4
78793;SHT31;68134;51.984;5.652;2023-04-25T06:06:44;8.2;67.4
78793;SHT31;68134;51.984;5.652;2023-04-25T06:09:14;8.2;67.6
78793;SHT31;68134;51.984;5.652;2023-04-25T06:11:43;8.2;67.4
78793;SHT31;68134;51.984;5.652;2023-04-25T06:14:13;8.3;68.0
78793;SHT31;68134;51.984;5.652;2023-04-25T06:16:42;8.4;66.9
78793;SHT31;68134;51.984;5.652;2023-04-25T06:19:12;8.4;68.0
78793;SHT31;68134;51.984;5.652;2023-04-25T06:21:43;8.5;67.7
78793;SHT31;68134;51.984;5.652;2023-04-25T06:24:13;8.6;66.8
78793;SHT31;68134;51.984;5.652;2023-04-25T06:26:43;8.7;66.8
78793;SHT31;68134;51.984;5.652;2023-04-25T06:29:14;8.7;67.1
78793;SHT31;68134;51.984;5.652;2023-04-25T06:31:44;8.8;66.8
78793;SHT31;68134;51.984;5.652;2023-04-25T06:34:14;8.9;66.7
78793;SHT31;68134;51.984;5.652;2023-04-25T06:36:46;8.9;66.0
78793;SHT31;68134;51.984;5.652;2023-04-25T06:39:16;9.0;66.2
78793;SHT31;68134;51.984;5.652;2023-04-25T06:41:47;9.1;65.5
78793;SHT31;68134;51.984;5.652;2023-04-25T06:44:17;9.1;65.5
78793;SHT31;68134;51.984;5.652;2023-04-25T06:46:46;9.2;65.6
78793;SHT31;68134;51.984;5.652;2023-04-25T06:49:16;9.3;64.2
78793;SHT31;68134;51.984;5.652;2023-04-25T06:51:45;9.3;64.3
78793;SHT31;68134;51.984;5.652;2023-04-25T06:54:15;9.4;64.3
78793;SHT31;68134;51.984;5.652;2023-04-25T06:56:45;9.5;64.5
78793;SHT31;68134;51.984;5.652;2023-04-25T06:59:14;9.5;63.3
78793;SHT31;68134;51.984;5.652;2023-04-25T07:01:45;9.6;63.3
78793;SHT31;68134;51.984;5.652;2023-04-25T07:04:14;9.6;63.5
78793;SHT31;68134;51.984;5.652;2023-04-25T07:06:44;9.7;63.2
78793;SHT31;68134;51.984;5.652;2023-04-25T07:09:15;9.8;62.5
78793;SHT31;68134;51.984;5.652;2023-04-25T07:11:45;9.8;62.5
78793;SHT31;68134;51.984;5.652;2023-04-25T07:14:15;9.9;61.4
78793;SHT31;68134;51.984;5.652;2023-04-25T07:16:44;10.0;60.6
78793;SHT31;68134;51.984;5.652;2023-04-25T07:19:14;10.1;60.9
78793;SHT31;68134;51.984;5.652;2023-04-25T07:21:43;10.2;59.9
78793;SHT31;68134;51.984;5.652;2023-04-25T07:24:13;10.2;59.8
78793;SHT31;68134;51.984;5.652;2023-04-25T07:26:42;10.3;59.5
78793;SHT31;68134;51.984;5.652;2023-04-25T07:29:13;10.4;59.2
78793;SHT31;68134;51.984;5.652;2023-04-25T07:31:42;10.5;59.7
78793;SHT31;68134;51.984;5.652;2023-04-25T07:34:12;10.5;59.3
78793;SHT31;68134;51.984;5.652;2023-04-25T07:36:42;10.6;59.6
78793;SHT31;68134;51.984;5.652;2023-04-25T07:39:11;10.8;58.9
78793;SHT31;68134;51.984;5.652;2023-04-25T07:41:41;10.9;58.0
78793;SHT31;68134;51.984;5.652;2023-04-25T07:44:10;11.0;57.5
78793;SHT31;68134;51.984;5.652;2023-04-25T07:46:40;11.1;58.0
78793;SHT31;68134;51.984;5.652;2023-04-25T07:49:09;11.3;57.8
78793;SHT31;68134;51.984;5.652;2023-04-25T07:51:39;11.5;55.9
78793;SHT31;68134;51.984;5.652;2023-04-25T07:54:13;11.7;56.0
78793;SHT31;68134;51.984;5.652;2023-04-25T07:56:44;11.8;54.5
78793;SHT31;68134;51.984;5.652;2023-04-25T07:59:13;11.9;54.1
78793;SHT31;68134;51.984;5.652;2023-04-25T08:01:43;12.1;55.0
78793;SHT31;68134;51.984;5.652;2023-04-25T08:04:12;12.4;53.9
78793;SHT31;68134;51.984;5.652;2023-04-25T08:06:42;12.8;51.2
78793;SHT31;68134;51.984;5.652;2023-04-25T08:09:12;13.1;50.7
78793;SHT31;68134;51.984;5.652;2023-04-25T08:11:43;13.5;49.5
78793;SHT31;68134;51.984;5.652;2023-04-25T08:14:13;13.8;49.0
78793;SHT31;68134;51.984;5.652;2023-04-25T08:16:43;14.0;46.9
78793;SHT31;68134;51.984;5.652;2023-04-25T08:19:12;14.0;46.8
78793;SHT31;68134;51.984;5.652;2023-04-25T08:21:42;14.1;45.2
78793;SHT31;68134;51.984;5.652;2023-04-25T08:24:11;14.1;45.4
78793;SHT31;68134;51.984;5.652;2023-04-25T08:26:41;14.0;46.5
78793;SHT31;68134;51.984;5.652;2023-04-25T08:29:10;14.0;47.1
78793;SHT31;68134;51.984;5.652;2023-04-25T08:31:40;14.0;47.6
78793;SHT31;68134;51.984;5.652;2023-04-25T08:34:10;14.1;47.6
78793;SHT31;68134;51.984;5.652;2023-04-25T08:36:39;14.3;46.2
78793;SHT31;68134;51.984;5.652;2023-04-25T08:39:09;14.3;44.5
78793;SHT31;68134;51.984;5.652;2023-04-25T08:41:43;14.4;44.8
78793;SHT31;68134;51.984;5.652;2023-04-25T08:44:14;14.5;43.9
78793;SHT31;68134;51.984;5.652;2023-04-25T08:46:46;14.5;43.0
78793;SHT31;68134;51.984;5.652;2023-04-25T08:49:18;14.5;43.9
78793;SHT31;68134;51.984;5.652;2023-04-25T08:51:49;14.6;42.7
78793;SHT31;68134;51.984;5.652;2023-04-25T08:54:21;14.7;44.3
78793;SHT31;68134;51.984;5.652;2023-04-25T08:56:55;15.0;43.7
78793;SHT31;68134;51.984;5.652;2023-04-25T08:59:28;15.3;41.1
78793;SHT31;68134;51.984;5.652;2023-04-25T09:02:00;15.4;41.1
78793;SHT31;68134;51.984;5.652;2023-04-25T09:04:31;15.5;39.8
78793;SHT31;68134;51.984;5.652;2023-04-25T09:07:01;15.3;41.7
78793;SHT31;68134;51.984;5.652;2023-04-25T09:09:30;14.9;43.3
78793;SHT31;68134;51.984;5.652;2023-04-25T09:12:00;14.4;45.5
78793;SHT31;68134;51.984;5.652;2023-04-25T09:14:30;14.0;42.4
78793;SHT31;68134;51.984;5.652;2023-04-25T09:17:01;13.8;43.8
78793;SHT31;68134;51.984;5.652;2023-04-25T09:19:33;13.6;45.4
78793;SHT31;68134;51.984;5.652;2023-04-25T09:22:04;13.4;46.3
78793;SHT31;68134;51.984;5.652;2023-04-25T09:24:35;13.3;46.5
78793;SHT31;68134;51.984;5.652;2023-04-25T09:27:07;13.3;49.0
78793;SHT31;68134;51.984;5.652;2023-04-25T09:29:38;13.3;51.3
78793;SHT31;68134;51.984;5.652;2023-04-25T09:32:13;13.6;49.5
78793;SHT31;68134;51.984;5.652;2023-04-25T09:34:45;14.0;47.0
78793;SHT31;68134;51.984;5.652;2023-04-25T09:37:21;14.4;43.7
78793;SHT31;68134;51.984;5.652;2023-04-25T09:39:54;14.7;43.6
78793;SHT31;68134;51.984;5.652;2023-04-25T09:42:25;15.1;41.0
78793;SHT31;68134;51.984;5.652;2023-04-25T09:44:56;15.5;38.9
78793;SHT31;68134;51.984;5.652;2023-04-25T09:47:26;15.8;39.3
78793;SHT31;68134;51.984;5.652;2023-04-25T09:49:56;16.4;39.5
78793;SHT31;68134;51.984;5.652;2023-04-25T09:52:26;17.0;39.6
78793;SHT31;68134;51.984;5.652;2023-04-25T09:54:55;17.6;39.2
78793;SHT31;68134;51.984;5.652;2023-04-25T09:57:25;18.1;38.9
78793;SHT31;68134;51.984;5.652;2023-04-25T09:59:55;18.5;34.8
78793;SHT31;68134;51.984;5.652;2023-04-25T10:02:27;18.7;35.2
78793;SHT31;68134;51.984;5.652;2023-04-25T10:04:57;18.7;34.1
78793;SHT31;68134;51.984;5.652;2023-04-25T10:07:31;18.6;33.2
78793;SHT31;68134;51.984;5.652;2023-04-25T10:10:04;18.4;32.7
78793;SHT31;68134;51.984;5.652;2023-04-25T10:12:34;18.0;33.6
78793;SHT31;68134;51.984;5.652;2023-04-25T10:15:04;17.6;34.9
78793;SHT31;68134;51.984;5.652;2023-04-25T10:17:35;17.2;35.4
78793;SHT31;68134;51.984;5.652;2023-04-25T10:20:09;16.9;34.9
78793;SHT31;68134;51.984;5.652;2023-04-25T10:22:41;16.6;36.0
78793;SHT31;68134;51.984;5.652;2023-04-25T10:25:13;16.4;37.4
78793;SHT31;68134;51.984;5.652;2023-04-25T10:27:43;16.1;38.9
78793;SHT31;68134;51.984;5.652;2023-04-25T10:30:14;16.0;39.1
78793;SHT31;68134;51.984;5.652;2023-04-25T10:32:45;15.8;39.1
78793;SHT31;68134;51.984;5.652;2023-04-25T10:35:17;15.8;39.1
78793;SHT31;68134;51.984;5.652;2023-04-25T10:38:00;15.7;39.5
78793;SHT31;68134;51.984;5.652;2023-04-25T10:40:32;15.7;39.7
78793;SHT31;68134;51.984;5.652;2023-04-25T10:43:35;15.7;39.0
78793;SHT31;68134;51.984;5.652;2023-04-25T10:46:21;15.8;39.6
78793;SHT31;68134;51.984;5.652;2023-04-25T10:48:53;15.9;38.9
78793;SHT31;68134;51.984;5.652;2023-04-25T10:51:25;16.1;37.0
78793;SHT31;68134;51.984;5.652;2023-04-25T10:54:02;16.2;38.0
78793;SHT31;68134;51.984;5.652;2023-04-25T10:56:33;16.2;36.8
78793;SHT31;68134;51.984;5.652;2023-04-25T10:59:11;16.3;35.9
78793;SHT31;68134;51.984;5.652;2023-04-25T11:01:42;16.3;36.9
78793;SHT31;68134;51.984;5.652;2023-04-25T11:04:23;16.4;37.3
78793;SHT31;68134;51.984;5.652;2023-04-25T11:07:22;16.5;37.3
78793;SHT31;68134;51.984;5.652;2023-04-25T11:09:53;16.6;35.5
78793;SHT31;68134;51.984;5.652;2023-04-25T11:12:24;16.7;34.8
78793;SHT31;68134;51.984;5.652;2023-04-25T11:15:00;16.7;35.5
78793;SHT31;68134;51.984;5.652;2023-04-25T11:17:31;16.7;34.2
78793;SHT31;68134;51.984;5.652;2023-04-25T11:20:01;16.7;33.7
78793;SHT31;68134;51.984;5.652;2023-04-25T11:22:34;16.7;34.0
78793;SHT31;68134;51.984;5.652;2023-04-25T11:25:09;16.8;33.7
78793;SHT31;68134;51.984;5.652;2023-04-25T11:27:53;16.8;33.7
78793;SHT31;68134;51.984;5.652;2023-04-25T11:30:25;16.9;35.4
78793;SHT31;68134;51.984;5.652;2023-04-25T11:32:56;17.2;34.2
78793;SHT31;68134;51.984;5.652;2023-04-25T11:35:29;17.5;33.7
78793;SHT31;68134;51.984;5.652;2023-04-25T11:37:58;17.7;33.5
78793;SHT31;68134;51.984;5.652;2023-04-25T11:40:30;17.8;32.2
78793;SHT31;68134;51.984;5.652;2023-04-25T11:43:01;17.9;33.2
78793;SHT31;68134;51.984;5.652;2023-04-25T11:45:33;18.0;32.4
78793;SHT31;68134;51.984;5.652;2023-04-25T11:48:03;18.1;33.2
78793;SHT31;68134;51.984;5.652;2023-04-25T11:50:33;18.2;32.4
78793;SHT31;68134;51.984;5.652;2023-04-25T11:53:03;18.2;34.5
78793;SHT31;68134;51.984;5.652;2023-04-25T11:55:33;18.0;35.4
78793;SHT31;68134;51.984;5.652;2023-04-25T11:58:04;17.5;35.9
78793;SHT31;68134;51.984;5.652;2023-04-25T12:00:34;16.9;36.8
78793;SHT31;68134;51.984;5.652;2023-04-25T12:03:04;16.5;37.2
78793;SHT31;68134;51.984;5.652;2023-04-25T12:05:34;16.1;38.3
78793;SHT31;68134;51.984;5.652;2023-04-25T12:08:12;15.9;39.4
78793;SHT31;68134;51.984;5.652;2023-04-25T12:10:45;15.6;41.0
78793;SHT31;68134;51.984;5.652;2023-04-25T12:13:23;15.5;40.6
78793;SHT31;68134;51.984;5.652;2023-04-25T12:15:55;15.4;40.4
78793;SHT31;68134;51.984;5.652;2023-04-25T12:18:25;15.4;40.5
78793;SHT31;68134;51.984;5.652;2023-04-25T12:20:58;15.4;39.6
78793;SHT31;68134;51.984;5.652;2023-04-25T12:23:28;15.4;39.3
78793;SHT31;68134;51.984;5.652;2023-04-25T12:25:59;15.4;39.5
78793;SHT31;68134;51.984;5.652;2023-04-25T12:28:32;15.4;38.9
78793;SHT31;68134;51.984;5.652;2023-04-25T12:31:03;15.5;37.5
78793;SHT31;68134;51.984;5.652;2023-04-25T12:33:34;15.6;38.7
78793;SHT31;68134;51.984;5.652;2023-04-25T12:36:05;15.7;38.8
78793;SHT31;68134;51.984;5.652;2023-04-25T12:38:40;15.9;37.3
78793;SHT31;68134;51.984;5.652;2023-04-25T12:41:11;16.0;36.1
78793;SHT31;68134;51.984;5.652;2023-04-25T12:43:41;16.1;36.2
78793;SHT31;68134;51.984;5.652;2023-04-25T12:46:11;16.1;36.6
78793;SHT31;68134;51.984;5.652;2023-04-25T12:48:43;16.2;36.8
78793;SHT31;68134;51.984;5.652;2023-04-25T12:51:13;16.4;38.2
78793;SHT31;68134;51.984;5.652;2023-04-25T12:53:45;16.8;37.7
78793;SHT31;68134;51.984;5.652;2023-04-25T12:56:15;17.2;36.6
78793;SHT31;68134;51.984;5.652;2023-04-25T12:58:46;17.3;36.2
78793;SHT31;68134;51.984;5.652;2023-04-25T13:01:17;17.3;34.8
78793;SHT31;68134;51.984;5.652;2023-04-25T13:03:48;17.2;35.0
78793;SHT31;68134;51.984;5.652;2023-04-25T13:06:19;17.1;34.2
78793;SHT31;68134;51.984;5.652;2023-04-25T13:08:49;16.9;35.5
78793;SHT31;68134;51.984;5.652;2023-04-25T13:11:18;16.9;36.0
78793;SHT31;68134;51.984;5.652;2023-04-25T13:13:48;17.0;37.2
78793;SHT31;68134;51.984;5.652;2023-04-25T13:16:17;17.1;35.2
78793;SHT31;68134;51.984;5.652;2023-04-25T13:18:48;17.5;35.0
78793;SHT31;68134;51.984;5.652;2023-04-25T13:21:18;18.0;34.3
78793;SHT31;68134;51.984;5.652;2023-04-25T13:23:47;18.4;33.9
78793;SHT31;68134;51.984;5.652;2023-04-25T13:26:17;18.6;32.0
78793;SHT31;68134;51.984;5.652;2023-04-25T13:28:47;18.8;31.3
78793;SHT31;68134;51.984;5.652;2023-04-25T13:31:16;18.9;31.9
78793;SHT31;68134;51.984;5.652;2023-04-25T13:33:46;19.0;32.1
78793;SHT31;68134;51.984;5.652;2023-04-25T13:36:15;19.1;31.0
78793;SHT31;68134;51.984;5.652;2023-04-25T13:38:45;19.1;30.0
78793;SHT31;68134;51.984;5.652;2023-04-25T13:41:16;19.0;30.3
78793;SHT31;68134;51.984;5.652;2023-04-25T13:43:47;18.8;31.6
78793;SHT31;68134;51.984;5.652;2023-04-25T13:46:17;18.6;31.9
78793;SHT31;68134;51.984;5.652;2023-04-25T13:48:46;18.6;33.2
78793;SHT31;68134;51.984;5.652;2023-04-25T13:51:17;18.6;31.9
78793;SHT31;68134;51.984;5.652;2023-04-25T13:53:48;18.5;32.5
78793;SHT31;68134;51.984;5.652;2023-04-25T13:56:17;18.5;32.2
78793;SHT31;68134;51.984;5.652;2023-04-25T13:58:47;18.3;31.9
78793;SHT31;68134;51.984;5.652;2023-04-25T14:01:17;18.1;32.9
78793;SHT31;68134;51.984;5.652;2023-04-25T14:03:48;17.8;33.6
78793;SHT31;68134;51.984;5.652;2023-04-25T14:06:18;17.4;34.2
78793;SHT31;68134;51.984;5.652;2023-04-25T14:08:50;17.1;35.6
78793;SHT31;68134;51.984;5.652;2023-04-25T14:11:20;16.8;35.4
78793;SHT31;68134;51.984;5.652;2023-04-25T14:13:49;16.6;35.2
78793;SHT31;68134;51.984;5.652;2023-04-25T14:16:19;16.4;36.3
78793;SHT31;68134;51.984;5.652;2023-04-25T14:18:50;16.3;37.1
78793;SHT31;68134;51.984;5.652;2023-04-25T14:21:19;16.2;35.9
78793;SHT31;68134;51.984;5.652;2023-04-25T14:23:49;16.2;36.5
78793;SHT31;68134;51.984;5.652;2023-04-25T14:26:19;16.2;36.0
78793;SHT31;68134;51.984;5.652;2023-04-25T14:28:49;16.1;35.7
78793;SHT31;68134;51.984;5.652;2023-04-25T14:31:19;16.1;36.1
78793;SHT31;68134;51.984;5.652;2023-04-25T14:33:49;16.0;36.9
78793;SHT31;68134;51.984;5.652;2023-04-25T14:36:19;15.9;35.9
78793;SHT31;68134;51.984;5.652;2023-04-25T14:38:49;15.8;35.8
78793;SHT31;68134;51.984;5.652;2023-04-25T14:41:18;15.7;36.5
78793;SHT31;68134;51.984;5.652;2023-04-25T14:43:48;15.7;36.9
78793;SHT31;68134;51.984;5.652;2023-04-25T14:46:20;15.6;37.5
78793;SHT31;68134;51.984;5.652;2023-04-25T14:48:51;15.5;38.5
78793;SHT31;68134;51.984;5.652;2023-04-25T14:51:23;15.5;38.1
78793;SHT31;68134;51.984;5.652;2023-04-25T14:53:53;15.5;36.8
78793;SHT31;68134;51.984;5.652;2023-04-25T14:56:23;15.5;35.8
78793;SHT31;68134;51.984;5.652;2023-04-25T14:58:53;15.5;35.9
78793;SHT31;68134;51.984;5.652;2023-04-25T15:01:22;15.5;36.0
78793;SHT31;68134;51.984;5.652;2023-04-25T15:03:52;15.4;36.0
78793;SHT31;68134;51.984;5.652;2023-04-25T15:06:22;15.4;36.1
78793;SHT31;68134;51.984;5.652;2023-04-25T15:08:54;15.4;35.6
78793;SHT31;68134;51.984;5.652;2023-04-25T15:11:27;15.3;37.8
78793;SHT31;68134;51.984;5.652;2023-04-25T15:13:56;15.3;36.1
78793;SHT31;68134;51.984;5.652;2023-04-25T15:16:26;15.4;36.7
78793;SHT31;68134;51.984;5.652;2023-04-25T15:18:55;15.4;35.6
78793;SHT31;68134;51.984;5.652;2023-04-25T15:21:27;15.4;36.5
78793;SHT31;68134;51.984;5.652;2023-04-25T15:23:57;15.3;38.5
78793;SHT31;68134;51.984;5.652;2023-04-25T15:26:27;15.3;39.2
78793;SHT31;68134;51.984;5.652;2023-04-25T15:28:57;15.3;39.8
78793;SHT31;68134;51.984;5.652;2023-04-25T15:31:27;15.3;40.3
78793;SHT31;68134;51.984;5.652;2023-04-25T15:33:56;15.2;39.9
78793;SHT31;68134;51.984;5.652;2023-04-25T15:36:26;15.2;38.7
78793;SHT31;68134;51.984;5.652;2023-04-25T15:38:56;15.1;40.3
78793;SHT31;68134;51.984;5.652;2023-04-25T15:41:28;15.0;40.3
78793;SHT31;68134;51.984;5.652;2023-04-25T15:43:59;15.0;39.6
78793;SHT31;68134;51.984;5.652;2023-04-25T15:46:29;14.9;37.8
78793;SHT31;68134;51.984;5.652;2023-04-25T15:48:59;14.9;37.6
78793;SHT31;68134;51.984;5.652;2023-04-25T15:51:29;14.8;36.7
78793;SHT31;68134;51.984;5.652;2023-04-25T15:54:00;14.7;37.3
78793;SHT31;68134;51.984;5.652;2023-04-25T15:56:30;14.6;37.7
78793;SHT31;68134;51.984;5.652;2023-04-25T15:59:00;14.5;38.5
78793;SHT31;68134;51.984;5.652;2023-04-25T16:01:30;14.3;39.2
78793;SHT31;68134;51.984;5.652;2023-04-25T16:04:00;14.3;39.2
78793;SHT31;68134;51.984;5.652;2023-04-25T16:06:29;14.2;38.9
78793;SHT31;68134;51.984;5.652;2023-04-25T16:09:01;14.1;39.5
78793;SHT31;68134;51.984;5.652;2023-04-25T16:11:31;14.0;39.8
78793;SHT31;68134;51.984;5.652;2023-04-25T16:14:00;13.9;39.8
78793;SHT31;68134;51.984;5.652;2023-04-25T16:16:30;13.9;40.0
78793;SHT31;68134;51.984;5.652;2023-04-25T16:19:00;13.8;39.2
78793;SHT31;68134;51.984;5.652;2023-04-25T16:21:29;13.8;38.5
78793;SHT31;68134;51.984;5.652;2023-04-25T16:23:59;13.7;38.6
78793;SHT31;68134;51.984;5.652;2023-04-25T16:26:29;13.7;40.1
78793;SHT31;68134;51.984;5.652;2023-04-25T16:28:58;13.6;40.5
78793;SHT31;68134;51.984;5.652;2023-04-25T16:31:28;13.5;41.5